createdAt,value
2022-08-04T00:00:44.474Z,32.54
2022-08-04T00:01:44.627Z,32.94
2022-08-04T00:02:44.710Z,34.14
2022-08-04T00:03:44.435Z,31.94
2022-08-04T00:04:44.427Z,31.04
2022-08-04T00:05:44.413Z,32.76
2022-08-04T00:06:44.402Z,32.96
2022-08-04T00:07:45.362Z,32.24
2022-08-04T00:08:44.387Z,32.35
2022-08-04T00:09:44.375Z,31.56
2022-08-04T00:10:44.361Z,33.06
2022-08-04T00:11:44.346Z,31.85
2022-08-04T00:12:44.335Z,31.65
2022-08-04T00:13:58.077Z,33.76
2022-08-04T00:14:44.315Z,31.27
2022-08-04T00:15:44.301Z,30.45
2022-08-04T00:16:44.292Z,31.17
2022-08-04T00:17:44.281Z,33.07
2022-08-04T00:18:44.269Z,32.87
2022-08-04T00:19:44.261Z,32.07
2022-08-04T00:20:44.246Z,31.47
2022-08-04T00:21:44.235Z,30.57
2022-08-04T00:22:44.226Z,29.66
2022-08-04T00:24:10.398Z,30.78
2022-08-04T00:24:45.230Z,30.27
2022-08-04T00:25:44.190Z,29.06
2022-08-04T00:26:44.179Z,28.48
2022-08-04T00:27:44.172Z,28.77
2022-08-04T00:28:44.157Z,29.58
2022-08-04T00:29:44.152Z,31.68
2022-08-04T00:30:44.134Z,30.18
2022-08-04T00:31:56.650Z,28.78
2022-08-04T00:32:44.113Z,28.48
2022-08-04T00:33:44.102Z,27.17
2022-08-04T00:34:44.090Z,29.48
2022-08-04T00:35:44.078Z,29.98
2022-08-04T00:36:44.069Z,28.98
2022-08-04T00:37:44.055Z,29.28
2022-08-04T00:38:44.047Z,28.17
2022-08-04T00:39:44.036Z,33.19
2022-08-04T00:40:44.024Z,30.30
2022-08-04T00:41:56.683Z,25.67
2022-08-04T00:42:58.708Z,27.27
2022-08-04T00:43:43.988Z,27.99
2022-08-04T00:44:43.979Z,28.98
2022-08-04T00:46:15.387Z,27.48
2022-08-04T00:46:43.958Z,25.88
2022-08-04T00:47:43.944Z,24.98
2022-08-04T00:48:43.934Z,24.78
2022-08-04T00:49:43.923Z,24.88
2022-08-04T00:50:43.911Z,27.48
2022-08-04T00:51:43.899Z,27.69
2022-08-04T00:52:43.890Z,26.89
2022-08-04T00:53:49.946Z,27.99
2022-08-04T00:54:43.868Z,26.89
2022-08-04T00:55:43.857Z,27.99
2022-08-04T00:56:43.846Z,26.89
2022-08-04T00:57:43.832Z,27.89
2022-08-04T00:58:43.825Z,30.69
2022-08-04T00:59:43.820Z,27.10
2022-08-04T01:00:43.857Z,26.28
2022-08-04T01:01:43.998Z,26.48
2022-08-04T01:02:43.978Z,26.78
2022-08-04T01:03:43.899Z,25.38
2022-08-04T01:04:43.912Z,26.68
2022-08-04T01:05:43.903Z,27.30
2022-08-04T01:06:43.915Z,29.41
2022-08-04T01:07:43.724Z,26.79
2022-08-04T01:08:43.713Z,27.60
2022-08-04T01:09:43.701Z,28.41
2022-08-04T01:10:43.691Z,26.90
2022-08-04T01:11:57.605Z,28.00
2022-08-04T01:12:44.704Z,26.40
2022-08-04T01:13:43.659Z,26.60
2022-08-04T01:14:43.650Z,26.60
2022-08-04T01:16:00.208Z,28.60
2022-08-04T01:16:44.653Z,30.02
2022-08-04T01:17:43.623Z,26.61
2022-08-04T01:18:43.607Z,27.21
2022-08-04T01:19:43.593Z,25.60
2022-08-04T01:20:43.583Z,24.89
2022-08-04T01:21:43.570Z,27.31
2022-08-04T01:22:43.563Z,25.40
2022-08-04T01:23:43.549Z,27.01
2022-08-04T01:24:43.550Z,26.21
2022-08-04T01:25:43.528Z,24.90
2022-08-04T01:26:57.275Z,24.40
2022-08-04T01:27:44.532Z,24.10
2022-08-04T01:28:43.496Z,24.90
2022-08-04T01:29:46.808Z,25.60
2022-08-04T01:30:43.473Z,26.21
2022-08-04T01:31:43.461Z,26.01
2022-08-04T01:32:43.450Z,27.21
2022-08-04T01:34:03.434Z,24.40
2022-08-04T01:34:44.559Z,25.71
2022-08-04T01:35:47.794Z,25.40
2022-08-04T01:36:43.406Z,25.10
2022-08-04T01:37:44.455Z,25.40
2022-08-04T01:38:43.385Z,25.20
2022-08-04T01:39:43.386Z,26.72
2022-08-04T01:40:43.364Z,26.02
2022-08-04T01:41:43.350Z,26.22
2022-08-04T01:42:44.366Z,24.51
2022-08-04T01:43:43.328Z,22.91
2022-08-04T01:44:43.321Z,22.71
2022-08-04T01:45:43.304Z,22.30
2022-08-04T01:46:43.295Z,23.30
2022-08-04T01:47:43.284Z,22.29
2022-08-04T01:48:43.274Z,20.89
2022-08-04T01:49:43.261Z,21.39
2022-08-04T01:50:43.251Z,22.79
2022-08-04T01:51:43.239Z,21.60
2022-08-04T01:52:45.540Z,21.19
2022-08-04T01:53:43.216Z,21.09
2022-08-04T01:54:43.209Z,20.68
2022-08-04T01:55:55.013Z,21.09
2022-08-04T01:56:43.187Z,21.69
2022-08-04T01:57:43.175Z,21.00
2022-08-04T01:58:43.164Z,20.68
2022-08-04T01:59:43.156Z,21.09
2022-08-04T02:00:43.141Z,16.27
2022-08-04T02:01:43.317Z,15.86
2022-08-04T02:02:43.212Z,17.77
2022-08-04T02:04:21.128Z,18.57
2022-08-04T02:04:44.122Z,19.68
2022-08-04T02:06:03.930Z,20.38
2022-08-04T02:06:44.098Z,21.19
2022-08-04T02:07:43.063Z,22.19
2022-08-04T02:08:43.053Z,22.89
2022-08-04T02:09:55.104Z,22.39
2022-08-04T02:10:43.028Z,21.00
2022-08-04T02:11:43.019Z,19.58
2022-08-04T02:12:43.007Z,18.68
2022-08-04T02:13:42.997Z,18.27
2022-08-04T02:14:43.001Z,19.38
2022-08-04T02:15:42.978Z,18.68
2022-08-04T02:16:42.962Z,18.99
2022-08-04T02:17:42.951Z,19.38
2022-08-04T02:18:42.945Z,19.49
2022-08-04T02:19:42.929Z,21.40
2022-08-04T02:20:42.919Z,20.69
2022-08-04T02:21:43.125Z,20.69
2022-08-04T02:22:42.895Z,20.69
2022-08-04T02:23:42.885Z,22.52
2022-08-04T02:24:42.872Z,24.42
2022-08-04T02:25:42.861Z,21.81
2022-08-04T02:26:42.848Z,22.21
2022-08-04T02:27:59.270Z,20.20
2022-08-04T02:28:42.826Z,18.90
2022-08-04T02:29:42.818Z,16.88
2022-08-04T02:30:42.802Z,19.30
2022-08-04T02:31:42.793Z,21.41
2022-08-04T02:32:42.778Z,18.79
2022-08-04T02:33:42.770Z,18.79
2022-08-04T02:34:42.755Z,18.79
2022-08-04T02:35:42.746Z,18.79
2022-08-04T02:36:42.733Z,20.10
2022-08-04T02:37:42.722Z,20.20
2022-08-04T02:38:42.709Z,18.09
2022-08-04T02:39:48.794Z,18.39
2022-08-04T02:40:42.686Z,17.99
2022-08-04T02:41:42.679Z,18.70
2022-08-04T02:42:42.663Z,17.59
2022-08-04T02:43:51.787Z,17.69
2022-08-04T02:44:42.641Z,18.59
2022-08-04T02:45:42.634Z,20.61
2022-08-04T02:46:42.621Z,18.29
2022-08-04T02:48:25.184Z,17.08
2022-08-04T02:48:43.721Z,16.88
2022-08-04T02:49:42.590Z,17.79
2022-08-04T02:50:42.575Z,19.30
2022-08-04T02:51:42.563Z,18.59
2022-08-04T02:52:42.547Z,17.49
2022-08-04T02:53:42.536Z,16.68
2022-08-04T02:54:42.525Z,17.89
2022-08-04T02:55:51.092Z,16.88
2022-08-04T02:56:42.504Z,17.29
2022-08-04T02:57:42.491Z,17.89
2022-08-04T02:58:42.478Z,18.70
2022-08-04T02:59:42.469Z,19.31
2022-08-04T03:00:42.494Z,18.00
2022-08-04T03:01:56.806Z,18.50
2022-08-04T03:02:42.432Z,18.10
2022-08-04T03:03:42.420Z,17.19
2022-08-04T03:04:42.407Z,17.10
2022-08-04T03:05:54.181Z,16.99
2022-08-04T03:06:42.386Z,15.78
2022-08-04T03:07:42.377Z,14.57
2022-08-04T03:08:42.361Z,15.28
2022-08-04T03:09:42.362Z,15.08
2022-08-04T03:10:42.340Z,17.08
2022-08-04T03:11:42.329Z,18.30
2022-08-04T03:12:42.315Z,17.10
2022-08-04T03:13:42.304Z,17.29
2022-08-04T03:14:42.319Z,17.49
2022-08-04T03:15:42.282Z,17.40
2022-08-04T03:16:42.270Z,19.81
2022-08-04T03:17:52.954Z,20.21
2022-08-04T03:18:42.248Z,17.80
2022-08-04T03:19:42.242Z,18.10
2022-08-04T03:20:42.221Z,16.59
2022-08-04T03:21:42.211Z,17.10
2022-08-04T03:23:06.213Z,15.28
2022-08-04T03:23:43.216Z,15.08
2022-08-04T03:24:42.175Z,14.78
2022-08-04T03:25:54.405Z,15.08
2022-08-04T03:26:43.181Z,16.19
2022-08-04T03:27:42.142Z,15.69
2022-08-04T03:28:42.131Z,15.69
2022-08-04T03:29:42.121Z,16.39
2022-08-04T03:30:42.105Z,16.29
2022-08-04T03:31:42.095Z,15.18
2022-08-04T03:32:42.082Z,16.09
2022-08-04T03:33:42.074Z,16.29
2022-08-04T03:34:42.059Z,17.10
2022-08-04T03:35:42.052Z,16.70
2022-08-04T03:36:42.035Z,17.60
2022-08-04T03:37:42.029Z,18.41
2022-08-04T03:38:42.012Z,18.21
2022-08-04T03:39:42.103Z,17.20
2022-08-04T03:40:41.989Z,16.80
2022-08-04T03:41:57.497Z,17.40
2022-08-04T03:42:41.967Z,19.42
2022-08-04T03:43:58.917Z,17.20
2022-08-04T03:44:42.974Z,18.01
2022-08-04T03:45:41.940Z,18.61
2022-08-04T03:46:41.919Z,17.60
2022-08-04T03:47:42.338Z,17.71
2022-08-04T03:48:41.897Z,16.90
2022-08-04T03:49:41.886Z,17.80
2022-08-04T03:50:41.877Z,18.41
2022-08-04T03:51:41.865Z,17.50
2022-08-04T03:52:41.851Z,18.71
2022-08-04T03:53:41.843Z,17.60
2022-08-04T03:54:41.829Z,16.80
2022-08-04T03:55:41.820Z,17.10
2022-08-04T03:56:41.806Z,18.61
2022-08-04T03:57:41.800Z,17.10
2022-08-04T03:58:41.785Z,16.50
2022-08-04T03:59:41.775Z,16.90
2022-08-04T04:00:41.763Z,16.19
2022-08-04T04:02:02.637Z,16.19
2022-08-04T04:02:42.853Z,16.19
2022-08-04T04:03:41.731Z,16.00
2022-08-04T04:04:41.722Z,17.80
2022-08-04T04:06:00.133Z,17.00
2022-08-04T04:06:43.390Z,17.20
2022-08-04T04:07:42.711Z,16.90
2022-08-04T04:08:41.671Z,18.11
2022-08-04T04:09:57.524Z,18.01
2022-08-04T04:10:41.653Z,17.00
2022-08-04T04:11:54.456Z,18.10
2022-08-04T04:12:41.630Z,17.50
2022-08-04T04:13:41.616Z,18.11
2022-08-04T04:14:41.603Z,17.40
2022-08-04T04:15:41.592Z,16.69
2022-08-04T04:16:41.580Z,16.19
2022-08-04T04:17:41.571Z,15.99
2022-08-04T04:18:41.556Z,15.69
2022-08-04T04:19:41.545Z,16.09
2022-08-04T04:20:41.532Z,15.89
2022-08-04T04:21:41.524Z,16.29
2022-08-04T04:22:41.521Z,16.38
2022-08-04T04:23:41.507Z,16.09
2022-08-04T04:24:41.491Z,15.78
2022-08-04T04:25:41.478Z,16.08
2022-08-04T04:26:41.485Z,16.48
2022-08-04T04:27:41.453Z,16.38
2022-08-04T04:28:46.123Z,16.58
2022-08-04T04:29:41.433Z,16.28
2022-08-04T04:30:41.418Z,16.08
2022-08-04T04:31:41.409Z,16.08
2022-08-04T04:32:41.397Z,15.07
2022-08-04T04:33:41.388Z,15.67
2022-08-04T04:34:45.856Z,15.87
2022-08-04T04:35:41.446Z,16.16
2022-08-04T04:36:41.357Z,16.16
2022-08-04T04:37:48.907Z,17.17
2022-08-04T04:38:41.330Z,16.87
2022-08-04T04:39:41.401Z,17.17
2022-08-04T04:40:41.311Z,17.77
2022-08-04T04:41:41.301Z,17.57
2022-08-04T04:42:41.284Z,18.37
2022-08-04T04:43:51.873Z,17.66
2022-08-04T04:44:41.265Z,18.27
2022-08-04T04:45:41.256Z,18.86
2022-08-04T04:46:41.299Z,18.16
2022-08-04T04:48:01.705Z,19.36
2022-08-04T04:48:41.226Z,19.96
2022-08-04T04:49:41.215Z,21.37
2022-08-04T04:50:41.198Z,21.15
2022-08-04T04:51:41.191Z,21.56
2022-08-04T04:52:41.173Z,21.86
2022-08-04T04:53:41.169Z,24.16
2022-08-04T04:54:41.159Z,23.35
2022-08-04T04:55:43.965Z,22.65
2022-08-04T04:56:41.133Z,23.65
2022-08-04T04:57:52.617Z,23.15
2022-08-04T04:58:42.139Z,25.26
2022-08-04T04:59:41.117Z,24.24
2022-08-04T05:00:41.087Z,25.14
2022-08-04T05:01:41.078Z,25.74
2022-08-04T05:02:41.066Z,29.55
2022-08-04T05:03:41.057Z,28.33
2022-08-04T05:04:41.040Z,30.54
2022-08-04T05:05:41.031Z,29.53
2022-08-04T05:06:41.021Z,31.34
2022-08-04T05:07:41.009Z,35.94
2022-08-04T05:08:41.084Z,37.15
2022-08-04T05:09:40.991Z,36.44
2022-08-04T05:10:40.977Z,34.94
2022-08-04T05:11:40.966Z,34.24
2022-08-04T05:14:30.882Z,34.34
2022-08-04T05:14:35.371Z,33.04
2022-08-04T05:14:41.735Z,31.14
2022-08-04T05:15:41.518Z,32.44
2022-08-04T05:16:40.910Z,37.75
2022-08-04T05:17:40.905Z,38.25
2022-08-04T05:18:40.904Z,36.55
2022-08-04T05:19:40.901Z,34.53
2022-08-04T05:20:40.871Z,32.73
2022-08-04T05:21:40.857Z,31.73
2022-08-04T05:22:40.973Z,33.51
2022-08-04T05:23:40.836Z,38.59
2022-08-04T05:24:40.820Z,38.87
2022-08-04T05:25:40.813Z,37.18
2022-08-04T05:26:40.800Z,38.29
2022-08-04T05:27:40.793Z,39.29
2022-08-04T05:28:40.776Z,39.39
2022-08-04T05:29:41.111Z,37.70
2022-08-04T05:30:40.757Z,36.19
2022-08-04T05:31:40.746Z,37.10
2022-08-04T05:32:40.735Z,35.11
2022-08-04T05:33:40.731Z,35.30
2022-08-04T05:34:40.714Z,38.59
2022-08-04T05:36:16.793Z,34.59
2022-08-04T05:36:41.818Z,33.80
2022-08-04T05:37:40.681Z,33.39
2022-08-04T05:38:40.667Z,35.68
2022-08-04T05:39:40.701Z,35.88
2022-08-04T05:40:40.648Z,42.57
2022-08-04T05:41:45.300Z,40.37
2022-08-04T05:42:40.624Z,42.07
2022-08-04T05:43:40.614Z,41.67
2022-08-04T05:44:40.604Z,38.68
2022-08-04T05:45:40.590Z,43.57
2022-08-04T05:46:40.578Z,41.17
2022-08-04T05:47:40.572Z,49.67
2022-08-04T05:48:40.560Z,47.07
2022-08-04T05:49:40.546Z,45.27
2022-08-04T05:50:40.536Z,42.47
2022-08-04T05:51:40.527Z,38.18
2022-08-04T05:52:40.512Z,38.06
2022-08-04T05:53:40.503Z,42.65
2022-08-04T05:54:40.495Z,47.85
2022-08-04T05:55:57.009Z,45.55
2022-08-04T05:56:41.505Z,48.75
2022-08-04T05:57:40.460Z,44.43
2022-08-04T05:58:40.446Z,46.23
2022-08-04T05:59:40.437Z,44.23
2022-08-04T06:00:41.815Z,41.44
2022-08-04T06:01:55.098Z,43.31
2022-08-04T06:02:41.433Z,43.41
2022-08-04T06:03:40.392Z,44.09
2022-08-04T06:04:40.399Z,43.89
2022-08-04T06:05:40.373Z,45.48
2022-08-04T06:06:40.381Z,45.17
2022-08-04T06:08:12.821Z,45.47
2022-08-04T06:08:41.365Z,50.92
2022-08-04T06:09:40.325Z,51.03
2022-08-04T06:10:40.312Z,50.52
2022-08-04T06:12:02.149Z,51.42
2022-08-04T06:12:40.294Z,57.60
2022-08-04T06:13:48.959Z,57.47
2022-08-04T06:14:40.279Z,62.29
2022-08-04T06:15:40.262Z,65.64
2022-08-04T06:16:40.258Z,65.19
2022-08-04T06:19:57.460Z,64.69
2022-08-04T06:20:01.315Z,68.90
2022-08-04T06:20:03.108Z,68.16
2022-08-04T06:20:40.204Z,74.07
2022-08-04T06:21:40.193Z,75.85
2022-08-04T06:22:40.184Z,73.67
2022-08-04T06:23:53.209Z,76.15
2022-08-04T06:24:40.162Z,74.93
2022-08-04T06:25:40.151Z,77.01
2022-08-04T06:26:40.140Z,77.81
2022-08-04T06:27:40.132Z,72.84
2022-08-04T06:28:40.134Z,76.12
2022-08-04T06:29:40.104Z,78.00
2022-08-04T06:30:40.094Z,77.81
2022-08-04T06:32:30.410Z,74.46
2022-08-04T06:32:41.999Z,75.06
2022-08-04T06:33:55.054Z,74.37
2022-08-04T06:34:41.083Z,72.08
2022-08-04T06:35:40.039Z,71.68
2022-08-04T06:36:40.029Z,73.57
2022-08-04T06:37:42.780Z,73.97
2022-08-04T06:38:40.016Z,72.17
2022-08-04T06:39:40.063Z,74.43
2022-08-04T06:40:39.990Z,74.63
2022-08-04T06:42:01.893Z,74.03
2022-08-04T06:42:39.966Z,74.03
2022-08-04T06:43:42.823Z,74.13
2022-08-04T06:44:39.942Z,75.68
2022-08-04T06:45:40.026Z,73.69
2022-08-04T06:46:39.923Z,75.29
2022-08-04T06:47:39.928Z,73.10
2022-08-04T06:48:39.903Z,73.27
2022-08-04T06:51:23.476Z,75.15
2022-08-04T06:51:31.390Z,76.54
2022-08-04T06:51:49.068Z,76.54
2022-08-04T06:52:39.858Z,73.66
2022-08-04T06:53:39.844Z,76.78
2022-08-04T06:54:39.839Z,76.04
2022-08-04T06:55:39.823Z,76.34
2022-08-04T06:56:39.812Z,75.12
2022-08-04T06:57:39.809Z,74.78
2022-08-04T06:58:39.791Z,75.24
2022-08-04T06:59:39.779Z,79.46
2022-08-04T07:00:39.774Z,80.68
2022-08-04T07:01:39.828Z,83.37
2022-08-04T07:02:39.747Z,87.04
2022-08-04T07:03:39.737Z,88.58
2022-08-04T07:04:39.732Z,91.40
2022-08-04T07:05:39.716Z,91.89
2022-08-04T07:06:39.710Z,91.79
2022-08-04T07:07:57.108Z,91.75
2022-08-04T07:08:40.714Z,92.05
2022-08-04T07:09:39.683Z,92.09
2022-08-04T07:10:39.667Z,92.09
2022-08-04T07:11:44.339Z,91.40
2022-08-04T07:12:39.650Z,91.75
2022-08-04T07:13:44.601Z,92.20
2022-08-04T07:14:39.620Z,92.15
2022-08-04T07:15:39.617Z,92.01
2022-08-04T07:16:39.598Z,91.42
2022-08-04T07:17:39.614Z,89.80
2022-08-04T07:18:39.593Z,89.35
2022-08-04T07:19:39.581Z,91.52
2022-08-04T07:20:39.556Z,91.13
2022-08-04T07:21:39.544Z,91.52
2022-08-04T07:22:39.545Z,90.83
2022-08-04T07:23:39.547Z,90.23
2022-08-04T07:24:41.456Z,90.23
2022-08-04T07:26:00.239Z,89.54
2022-08-04T07:26:39.496Z,89.84
2022-08-04T07:27:48.329Z,90.09
2022-08-04T07:28:40.505Z,88.18
2022-08-04T07:29:39.460Z,87.99
2022-08-04T07:30:39.470Z,80.78
2022-08-04T07:31:39.441Z,73.27
2022-08-04T07:32:39.436Z,72.33
2022-08-04T07:33:39.419Z,75.63
2022-08-04T07:34:39.412Z,73.54
2022-08-04T07:36:04.907Z,70.65
2022-08-04T07:36:50.079Z,71.44
2022-08-04T07:37:40.407Z,75.56
2022-08-04T07:38:48.225Z,77.81
2022-08-04T07:39:48.107Z,77.72
2022-08-04T07:40:39.748Z,72.94
2022-08-04T07:41:39.571Z,70.78
2022-08-04T07:49:54.735Z,82.39
2022-08-04T07:50:29.214Z,83.57
2022-08-04T07:51:29.239Z,87.01
2022-08-04T07:52:29.223Z,84.06
2022-08-04T07:53:55.465Z,87.60
2022-08-04T07:54:30.212Z,82.68
2022-08-04T07:55:29.165Z,82.00
2022-08-04T07:56:29.153Z,79.30
2022-08-04T07:57:41.128Z,76.91
2022-08-04T07:58:30.482Z,74.32
2022-08-04T07:59:29.124Z,73.50
2022-08-04T08:00:29.102Z,78.09
2022-08-04T08:01:29.098Z,73.50
2022-08-04T08:02:29.084Z,77.15
2022-08-04T08:03:29.245Z,64.54
2022-08-04T08:04:29.071Z,62.92
2022-08-04T08:05:29.056Z,59.27
2022-08-04T08:06:32.362Z,58.28
2022-08-04T08:07:29.042Z,58.64
2022-08-04T08:08:29.023Z,62.09
2022-08-04T08:09:29.012Z,62.02
2022-08-04T08:10:29.006Z,60.58
2022-08-04T08:12:36.221Z,61.10
2022-08-04T08:12:37.367Z,61.10
2022-08-04T08:13:33.154Z,62.35
2022-08-04T08:14:28.993Z,60.85
2022-08-04T08:15:28.961Z,59.32
2022-08-04T08:16:28.943Z,60.27
2022-08-04T08:17:28.937Z,57.11
2022-08-04T08:18:28.929Z,56.40
2022-08-04T08:19:28.914Z,56.01
2022-08-04T08:20:30.203Z,56.08
2022-08-04T08:21:28.899Z,55.32
2022-08-04T08:22:28.888Z,55.40
2022-08-04T08:23:28.880Z,57.18
2022-08-04T08:24:28.864Z,56.27
2022-08-04T08:25:28.871Z,54.83
2022-08-04T08:26:28.854Z,56.72
2022-08-04T08:27:28.839Z,55.74
2022-08-04T08:28:28.831Z,53.88
2022-08-04T08:29:28.821Z,54.35
2022-08-04T08:30:31.485Z,53.76
2022-08-04T08:31:56.200Z,53.42
2022-08-04T08:32:29.831Z,52.22
2022-08-04T08:33:28.783Z,52.48
2022-08-04T08:34:29.097Z,50.90
2022-08-04T08:35:28.775Z,50.21
2022-08-04T08:36:28.762Z,49.80
2022-08-04T08:37:28.905Z,48.36
2022-08-04T08:38:28.736Z,49.32
2022-08-04T08:39:28.784Z,48.34
2022-08-04T08:40:40.768Z,47.63
2022-08-04T08:41:29.789Z,46.34
2022-08-04T08:42:28.692Z,47.13
2022-08-04T08:44:05.121Z,48.32
2022-08-04T08:44:37.460Z,47.71
2022-08-04T08:45:28.664Z,48.12
2022-08-04T08:46:48.367Z,48.12
2022-08-04T08:47:28.676Z,46.93
2022-08-04T08:48:28.643Z,46.86
2022-08-04T08:50:03.061Z,47.80
2022-08-04T08:50:29.649Z,48.07
2022-08-04T08:51:28.605Z,46.78
2022-08-04T08:52:57.568Z,46.18
2022-08-04T08:53:28.587Z,47.05
2022-08-04T08:54:28.581Z,45.09
2022-08-04T08:55:28.579Z,46.33
2022-08-04T08:56:31.415Z,44.46
2022-08-04T08:57:28.546Z,43.90
2022-08-04T08:58:28.541Z,43.20
2022-08-04T08:59:28.570Z,42.93
2022-08-04T09:00:31.998Z,43.02
2022-08-04T09:01:28.569Z,41.96
2022-08-04T09:02:28.505Z,43.48
2022-08-04T09:03:28.491Z,44.33
2022-08-04T09:04:31.964Z,43.51
2022-08-04T09:05:28.469Z,43.93
2022-08-04T09:06:28.464Z,41.84
2022-08-04T09:07:28.451Z,42.77
2022-08-04T09:08:28.447Z,41.92
2022-08-04T09:09:28.432Z,43.12
2022-08-04T09:10:33.054Z,42.61
2022-08-04T09:11:28.414Z,41.49
2022-08-04T09:12:28.411Z,40.21
2022-08-04T09:13:28.426Z,40.42
2022-08-04T09:14:28.389Z,41.99
2022-08-04T09:15:28.377Z,41.82
2022-08-04T09:16:28.373Z,42.23
2022-08-04T09:17:28.366Z,42.03
2022-08-04T09:18:28.349Z,41.05
2022-08-04T09:19:38.514Z,41.49
2022-08-04T09:20:29.361Z,41.14
2022-08-04T09:21:28.329Z,38.53
2022-08-04T09:22:28.317Z,38.64
2022-08-04T09:23:28.321Z,39.12
2022-08-04T09:24:35.275Z,40.09
2022-08-04T09:25:29.320Z,40.01
2022-08-04T09:26:28.285Z,39.47
2022-08-04T09:27:28.276Z,38.70
2022-08-04T09:28:52.143Z,39.80
2022-08-04T09:29:29.294Z,39.86
2022-08-04T09:30:28.247Z,39.47
2022-08-04T09:31:28.236Z,39.84
2022-08-04T09:32:28.229Z,40.03
2022-08-04T09:33:45.319Z,39.47
2022-08-04T09:34:29.248Z,38.64
2022-08-04T09:35:28.207Z,39.55
2022-08-04T09:36:28.292Z,40.83
2022-08-04T09:37:28.203Z,40.54
2022-08-04T09:38:28.173Z,40.06
2022-08-04T09:39:28.358Z,40.47
2022-08-04T09:40:31.614Z,42.31
2022-08-04T09:41:48.084Z,41.69
2022-08-04T09:42:30.370Z,39.78
2022-08-04T09:43:28.122Z,39.55
2022-08-04T09:44:52.682Z,38.73
2022-08-04T09:45:36.651Z,38.93
2022-08-04T09:46:29.124Z,38.73
2022-08-04T09:47:39.757Z,38.12
2022-08-04T09:48:29.170Z,38.46
2022-08-04T09:49:28.070Z,37.67
2022-08-04T09:50:28.061Z,37.87
2022-08-04T09:51:57.495Z,37.65
2022-08-04T09:52:29.075Z,35.53
2022-08-04T09:53:28.028Z,34.38
2022-08-04T09:54:30.404Z,35.69
2022-08-04T09:55:28.011Z,35.77
2022-08-04T09:56:28.002Z,34.61
2022-08-04T09:57:27.995Z,34.53
2022-08-04T09:58:27.987Z,36.06
2022-08-04T09:59:28.003Z,35.19
2022-08-04T10:00:40.835Z,33.94
2022-08-04T10:01:28.988Z,33.84
2022-08-04T10:02:27.949Z,34.13
2022-08-04T10:03:28.006Z,34.80
2022-08-04T10:04:27.936Z,35.56
2022-08-04T10:05:27.918Z,33.94
2022-08-04T10:06:27.927Z,33.04
2022-08-04T10:07:27.905Z,34.70
2022-08-04T10:08:27.900Z,35.70
2022-08-04T10:09:27.988Z,35.39
2022-08-04T10:10:27.880Z,35.28
2022-08-04T10:11:27.903Z,34.76
2022-08-04T10:12:27.901Z,33.20
2022-08-04T10:13:27.881Z,34.74
2022-08-04T10:14:27.853Z,33.58
2022-08-04T10:15:27.834Z,33.95
2022-08-04T10:16:27.826Z,33.94
2022-08-04T10:17:27.812Z,32.97
2022-08-04T10:18:27.810Z,33.45
2022-08-04T10:19:27.809Z,33.74
2022-08-04T10:20:44.719Z,34.01
2022-08-04T10:21:29.123Z,32.89
2022-08-04T10:22:29.778Z,34.52
2022-08-04T10:23:27.912Z,33.45
2022-08-04T10:24:27.818Z,33.55
2022-08-04T10:25:37.347Z,34.70
2022-08-04T10:26:27.755Z,33.42
2022-08-04T10:27:27.731Z,32.15
2022-08-04T10:28:27.737Z,32.15
2022-08-04T10:29:27.722Z,32.75
2022-08-04T10:30:27.714Z,32.34
2022-08-04T10:31:27.704Z,32.65
2022-08-04T10:32:27.703Z,32.65
2022-08-04T10:33:27.680Z,32.06
2022-08-04T10:34:27.689Z,32.52
2022-08-04T10:35:27.669Z,31.51
2022-08-04T10:36:27.666Z,32.76
2022-08-04T10:38:00.364Z,32.56
2022-08-04T10:38:28.781Z,32.17
2022-08-04T10:39:43.147Z,32.46
2022-08-04T10:40:27.624Z,32.46
2022-08-04T10:41:27.648Z,32.06
2022-08-04T10:42:27.770Z,32.79
2022-08-04T10:43:27.792Z,31.34
2022-08-04T10:44:27.686Z,29.99
2022-08-04T10:45:27.896Z,30.08
2022-08-04T10:46:27.709Z,29.97
2022-08-04T10:47:27.640Z,30.92
2022-08-04T10:48:35.025Z,29.96
2022-08-04T10:49:28.845Z,29.58
2022-08-04T10:50:27.627Z,30.36
2022-08-04T10:51:27.644Z,30.60
2022-08-04T10:52:27.737Z,32.26
2022-08-04T10:53:27.745Z,31.40
2022-08-04T10:54:27.676Z,30.80
2022-08-04T10:56:07.679Z,31.27
2022-08-04T10:56:27.665Z,32.03
2022-08-04T10:57:27.760Z,30.69
2022-08-04T10:58:47.907Z,31.35
2022-08-04T10:59:27.767Z,31.74
2022-08-04T11:00:27.930Z,31.15
2022-08-04T11:01:59.545Z,31.13
2022-08-04T11:02:28.687Z,29.77
2022-08-04T11:03:27.792Z,29.38
2022-08-04T11:04:28.111Z,30.73
2022-08-04T11:05:27.594Z,30.33
2022-08-04T11:06:27.450Z,29.83
2022-08-04T11:07:27.444Z,28.77
2022-08-04T11:08:27.520Z,29.27
2022-08-04T11:09:27.431Z,29.53
2022-08-04T11:10:27.611Z,29.33
2022-08-04T11:11:28.015Z,29.79
2022-08-04T11:12:27.416Z,29.82
2022-08-04T11:13:29.829Z,29.85
2022-08-04T11:14:27.442Z,30.71
2022-08-04T11:15:27.515Z,31.27
2022-08-04T11:16:27.461Z,29.24
2022-08-04T11:17:27.418Z,29.42
2022-08-04T11:18:27.520Z,28.94
2022-08-04T11:19:42.631Z,29.88
2022-08-04T11:20:36.532Z,28.83
2022-08-04T11:21:28.510Z,29.82
2022-08-04T11:22:27.464Z,30.12
2022-08-04T11:23:27.456Z,29.42
2022-08-04T11:24:27.436Z,29.60
2022-08-04T11:25:27.267Z,29.01
2022-08-04T11:26:27.278Z,29.19
2022-08-04T11:27:27.252Z,27.55
2022-08-04T11:28:30.387Z,28.02
2022-08-04T11:29:27.254Z,27.53
2022-08-04T11:30:27.261Z,28.20
2022-08-04T11:31:27.219Z,27.64
2022-08-04T11:32:27.256Z,27.93
2022-08-04T11:33:27.281Z,27.91
2022-08-04T11:34:27.405Z,26.57
2022-08-04T11:35:27.440Z,27.53
2022-08-04T11:36:27.403Z,26.76
2022-08-04T11:37:27.473Z,26.66
2022-08-04T11:38:32.097Z,27.25
2022-08-04T11:39:27.274Z,27.83
2022-08-04T11:40:27.204Z,28.20
2022-08-04T11:41:27.194Z,27.80
2022-08-04T11:42:27.198Z,26.26
2022-08-04T11:44:01.627Z,26.92
2022-08-04T11:44:28.157Z,26.67
2022-08-04T11:45:27.172Z,26.76
2022-08-04T11:46:27.122Z,27.83
2022-08-04T11:47:30.317Z,27.64
2022-08-04T11:48:27.339Z,27.26
2022-08-04T11:49:27.076Z,26.97
2022-08-04T11:50:27.071Z,27.45
2022-08-04T11:51:27.069Z,26.85
2022-08-04T11:52:27.190Z,26.95
2022-08-04T11:53:34.697Z,26.26
2022-08-04T11:54:27.104Z,26.44
2022-08-04T11:55:27.073Z,26.15
2022-08-04T11:56:27.669Z,26.06
2022-08-04T11:57:35.608Z,26.63
2022-08-04T11:58:27.017Z,25.59
2022-08-04T11:59:27.226Z,26.39
2022-08-04T12:00:27.249Z,26.95
2022-08-04T12:01:27.005Z,25.80
2022-08-04T12:02:27.484Z,26.42
2022-08-04T12:03:27.042Z,26.81
2022-08-04T12:04:27.205Z,27.18
2022-08-04T12:05:35.711Z,28.20
2022-08-04T12:06:28.319Z,27.04
2022-08-04T12:07:31.386Z,26.45
2022-08-04T12:08:26.895Z,25.85
2022-08-04T12:09:26.970Z,24.98
2022-08-04T12:10:42.228Z,24.52
2022-08-04T12:11:28.215Z,24.60
2022-08-04T12:12:27.319Z,24.52
2022-08-04T12:13:26.867Z,25.21
2022-08-04T12:14:26.868Z,26.34
2022-08-04T12:15:26.928Z,26.24
2022-08-04T12:16:30.454Z,26.33
2022-08-04T12:17:26.986Z,26.81
2022-08-04T12:18:28.048Z,26.04
2022-08-04T12:19:30.924Z,25.37
2022-08-04T12:20:31.995Z,27.49
2022-08-04T12:21:27.871Z,27.66
2022-08-04T12:22:29.824Z,27.01
2022-08-04T12:23:26.880Z,28.38
2022-08-04T12:24:27.007Z,29.74
2022-08-04T12:25:27.176Z,28.03
2022-08-04T12:26:26.765Z,28.33
2022-08-04T12:27:30.554Z,28.67
2022-08-04T12:28:26.712Z,26.56
2022-08-04T12:29:26.703Z,26.72
2022-08-04T12:30:58.173Z,25.66
2022-08-04T12:31:28.165Z,26.42
2022-08-04T12:32:26.676Z,28.53
2022-08-04T12:34:03.840Z,27.83
2022-08-04T12:34:29.972Z,26.00
2022-08-04T12:35:26.676Z,25.13
2022-08-04T12:36:26.653Z,25.21
2022-08-04T12:37:26.632Z,25.60
2022-08-04T12:38:26.622Z,25.62
2022-08-04T12:39:26.715Z,26.09
2022-08-04T12:40:29.879Z,25.13
2022-08-04T12:41:26.605Z,26.23
2022-08-04T12:42:26.629Z,27.12
2022-08-04T12:43:26.579Z,28.19
2022-08-04T12:44:36.999Z,29.10
2022-08-04T12:45:26.566Z,30.17
2022-08-04T12:46:26.570Z,30.73
2022-08-04T12:47:36.341Z,30.70
2022-08-04T12:48:27.568Z,27.68
2022-08-04T12:49:26.565Z,27.00
2022-08-04T12:50:26.526Z,29.12
2022-08-04T12:51:31.135Z,28.38
2022-08-04T12:52:51.547Z,28.41
2022-08-04T12:53:32.246Z,28.25
2022-08-04T12:54:28.984Z,29.44
2022-08-04T12:55:26.480Z,31.87
2022-08-04T12:56:26.473Z,31.65
2022-08-04T12:57:26.469Z,31.88
2022-08-04T12:58:42.885Z,30.07
2022-08-04T12:59:26.488Z,30.33